Minerva Grace — SVBN7 — position and weather

sailwx.info

Track history (hours):
 
Tides and Currents Weather Stations Pressure Air Temp Water Temp Dewpoint Dewpoint Depression Visibility Wind Speed Wind Dir Waves Ship Positions

Minerva Grace

Last reported at 2015-May-22 09:31 UTC. Time now 2015-May-22 10:03 UTC.
Position N 52°09' E 003°42'.

Length 183 m; draft 8.2 m.

Type: Tanker. MMSI: 241193000.

Date/timePositionNaut miles runAvg speedWind from/ knotsBaromVisibWave heightAir tempDewpointWater temp
2015-May-22 09:31N 52°09' E 003°42'0 0.1
2015-May-22 08:31N 52°09' E 003°42'0 0.0
2015-May-22 07:31N 52°09' E 003°42'0 0.0
2015-May-22 06:31N 52°09' E 003°42'0 0.0
2015-May-22 05:28N 52°09' E 003°42'0 0.0
2015-May-22 04:28N 52°09' E 003°42'0 0.0
2015-May-22 03:31N 52°09' E 003°42'0 0.0
2015-May-22 02:31N 52°09' E 003°42'0 0.1
2015-May-22 01:32N 52°09' E 003°42'3 3.2
2015-May-22 00:33N 52°06' E 003°45'1010.2
2015-May-21 23:33N 52°01' E 003°59'1313.2
2015-May-21 22:33N 51°54' E 004°17'3 2.8
2015-May-21 21:33N 51°54' E 004°22'  
2015-May-19 17:07N 51°54' E 004°22'0 0.7
2015-May-19 16:34N 51°54' E 004°21'7 6.6
2015-May-19 15:33N 51°56' E 004°12'1010.5
2015-May-19 14:33N 52°00' E 003°56'1211.5
2015-May-19 13:31N 51°57' E 003°37'4 3.4
2015-May-19 12:29N 51°54' E 003°34'0 0.1
2015-May-19 11:26N 51°54' E 003°34'0 0.1
2015-May-19 10:27N 51°54' E 003°33'5 5.3
2015-May-19 09:26N 51°54' E 003°25'295 9.2
2015-May-18 01:25N 56°48' E 004°24'  
Track history (hours):
 
Tides and Currents Weather Stations Pressure Air Temp Water Temp Dewpoint Dewpoint Depression Visibility Wind Speed Wind Dir Waves Ship Positions

Minerva Grace

Last reported at 2015-May-22 09:31 UTC. Time now 2015-May-22 10:03 UTC.
Position N 52°09' E 003°42'.

Length 183 m; draft 8.2 m.

Type: Tanker. MMSI: 241193000.

Date/timePositionNaut miles runAvg speedWind from/ knotsBaromVisibWave heightAir tempDewpointWater temp
2015-May-22 09:31N 52°09' E 003°42'0 0.1
2015-May-22 08:31N 52°09' E 003°42'0 0.0
2015-May-22 07:31N 52°09' E 003°42'0 0.0
2015-May-22 06:31N 52°09' E 003°42'0 0.0
2015-May-22 05:28N 52°09' E 003°42'0 0.0
2015-May-22 04:28N 52°09' E 003°42'0 0.0
2015-May-22 03:31N 52°09' E 003°42'0 0.0
2015-May-22 02:31N 52°09' E 003°42'0 0.1
2015-May-22 01:32N 52°09' E 003°42'3 3.2
2015-May-22 00:33N 52°06' E 003°45'1010.2
2015-May-21 23:33N 52°01' E 003°59'1313.2
2015-May-21 22:33N 51°54' E 004°17'3 2.8
2015-May-21 21:33N 51°54' E 004°22'  
2015-May-19 17:07N 51°54' E 004°22'0 0.7
2015-May-19 16:34N 51°54' E 004°21'7 6.6
2015-May-19 15:33N 51°56' E 004°12'1010.5
2015-May-19 14:33N 52°00' E 003°56'1211.5
2015-May-19 13:31N 51°57' E 003°37'4 3.4
2015-May-19 12:29N 51°54' E 003°34'0 0.1
2015-May-19 11:26N 51°54' E 003°34'0 0.1
2015-May-19 10:27N 51°54' E 003°33'5 5.3
2015-May-19 09:26N 51°54' E 003°25'295 9.2
2015-May-18 01:25N 56°48' E 004°24'  

Dump ship's entire track history